This is the latest recevied weather packets stored in our database for station/object F4JSG-10. If no packets are shown the sender has not sent any weather packets the latest 1 day(s).
| Time | Temp. | Humidity | Pressure | Rain* | Wind** | Luminosity | Snow |
|---|---|---|---|---|---|---|---|
| 1777725324 | 32.22° C | 23% | 992.1 hPa | - | - | - | - |
| 1777724424 | 31.11° C | 25% | 992.4 hPa | - | - | - | - |
| 1777723524 | 32.78° C | 25% | 992.7 hPa | - | - | - | - |
| 1777722624 | 31.67° C | 24% | 992.9 hPa | - | - | - | - |
| 1777721723 | 32.78° C | 23% | 993.1 hPa | - | - | - | - |
| 1777720823 | 31.11° C | 27% | 993.4 hPa | - | - | - | - |
| 1777719926 | 30.56° C | 26% | 993.6 hPa | - | - | - | - |
| 1777719026 | 32.78° C | 23% | 993.8 hPa | - | - | - | - |
| 1777718126 | 30° C | 26% | 994.1 hPa | - | - | - | - |
| 1777718123 | 30° C | 26% | 994.1 hPa | - | - | - | - |
| 1777717226 | 30° C | 27% | 994.4 hPa | - | - | - | - |
| 1777717223 | 30° C | 27% | 994.4 hPa | - | - | - | - |
| 1777716326 | 31.11° C | 25% | 994.5 hPa | - | - | - | - |
| 1777716323 | 31.11° C | 25% | 994.5 hPa | - | - | - | - |
| 1777715426 | 27.22° C | 31% | 994.8 hPa | - | - | - | - |
| 1777715423 | 27.22° C | 31% | 994.8 hPa | - | - | - | - |
| 1777714525 | 26.11° C | 32% | 994.9 hPa | - | - | - | - |
| 1777714522 | 26.11° C | 32% | 994.9 hPa | - | - | - | - |
| 1777713625 | 27.78° C | 28% | 995 hPa | - | - | - | - |
| 1777713622 | 27.78° C | 28% | 995 hPa | - | - | - | - |
| 1777712725 | 25.56° C | 32% | 995.2 hPa | - | - | - | - |
| 1777712722 | 25.56° C | 32% | 995.2 hPa | - | - | - | - |
| 1777712327 | 24.44° C | 33% | 995.5 hPa | - | - | - | - |
| 1777712327 | 24.44° C | 34% | 995.4 hPa | - | - | - | - |
| 1777711825 | 24.44° C | 34% | 995.4 hPa | - | - | - | - |
* Rain since midnight (hover to see other rain measurements)
** Current wind speed in m/s (hover to see current wind gust speed)